createdAt,value
2019-05-29T00:03:34.640Z,2.42
2019-05-29T00:08:43.735Z,2.74
2019-05-29T00:13:52.995Z,2.94
2019-05-29T00:19:02.091Z,3.77
2019-05-29T00:24:12.415Z,2.68
2019-05-29T00:29:19.798Z,2.66
2019-05-29T00:34:29.015Z,2.70
2019-05-29T00:39:38.142Z,4.46
2019-05-29T00:44:47.422Z,3.05
2019-05-29T00:49:56.542Z,4.54
2019-05-29T00:55:05.679Z,3.55
2019-05-29T01:00:15.270Z,3.83
2019-05-29T01:05:23.547Z,2.64
2019-05-29T01:10:32.635Z,3.60
2019-05-29T01:15:41.793Z,3.22
2019-05-29T01:20:50.911Z,4.27
2019-05-29T01:26:00.086Z,2.38
2019-05-29T01:31:09.200Z,2.41
2019-05-29T01:36:18.443Z,3.12
2019-05-29T01:41:27.633Z,4.47
2019-05-29T01:46:36.838Z,2.63
2019-05-29T01:51:45.934Z,4.55
2019-05-29T01:56:55.159Z,4.63
2019-05-29T02:02:04.240Z,5.11
2019-05-29T02:07:13.478Z,4.40
2019-05-29T02:12:22.606Z,4.74
2019-05-29T02:17:31.760Z,4.36
2019-05-29T02:22:40.842Z,4.58
2019-05-29T02:27:50.006Z,5.13
2019-05-29T02:32:59.120Z,5.77
2019-05-29T02:38:08.275Z,5.72
2019-05-29T02:43:19.038Z,6.76
2019-05-29T02:48:27.494Z,7.22
2019-05-29T02:53:34.860Z,6.64
2019-05-29T02:58:44.020Z,7.09
2019-05-29T03:03:53.279Z,7.09
2019-05-29T03:09:02.437Z,6.88
2019-05-29T03:14:11.529Z,7.57
2019-05-29T03:19:20.706Z,6.45
2019-05-29T03:24:30.830Z,7.92
2019-05-29T03:29:38.669Z,7.18
2019-05-29T03:34:47.877Z,5.96
2019-05-29T03:39:56.413Z,6.22
2019-05-29T03:45:05.521Z,5.78
2019-05-29T03:50:15.810Z,6.59
2019-05-29T03:55:23.367Z,7.81
2019-05-29T04:00:41.747Z,7.70
2019-05-29T04:05:41.289Z,8.09
2019-05-29T04:10:50.399Z,9.33
2019-05-29T04:15:59.513Z,9.39
2019-05-29T04:21:08.720Z,7.49
2019-05-29T04:26:17.840Z,8.48
2019-05-29T04:31:28.108Z,8.54
2019-05-29T04:36:36.871Z,7.37
2019-05-29T04:41:44.424Z,9.01
2019-05-29T04:47:09.356Z,8.01
2019-05-29T04:52:02.176Z,7.49
2019-05-29T04:57:11.253Z,5.77
2019-05-29T05:02:20.549Z,6.72
2019-05-29T05:07:29.728Z,6.02
2019-05-29T05:12:40.074Z,4.92
2019-05-29T05:17:47.540Z,5.77
2019-05-29T05:22:56.680Z,6.68
2019-05-29T05:28:05.780Z,6.28
2019-05-29T05:33:15.081Z,4.99
2019-05-29T05:38:24.254Z,5.28
2019-05-29T05:43:33.533Z,4.98
2019-05-29T05:48:42.623Z,5.13
2019-05-29T05:53:51.762Z,5.89
2019-05-29T05:59:00.906Z,5.24
2019-05-29T06:04:10.052Z,7.10
2019-05-29T06:09:19.168Z,5.69
2019-05-29T06:14:28.346Z,5.28
2019-05-29T06:19:38.898Z,4.72
2019-05-29T06:24:46.094Z,4.57
2019-05-29T06:29:55.206Z,4.18
2019-05-29T06:35:04.454Z,4.80
2019-05-29T06:40:13.595Z,5.87
2019-05-29T06:45:22.788Z,4.49
2019-05-29T06:50:31.908Z,4.95
2019-05-29T06:55:42.105Z,6.05
2019-05-29T07:00:49.830Z,5.09
2019-05-29T07:05:59.104Z,5.47
2019-05-29T07:11:08.239Z,6.74
2019-05-29T07:16:17.423Z,3.63
2019-05-29T07:21:26.524Z,4.52
2019-05-29T07:26:36.933Z,2.37
2019-05-29T07:31:45.055Z,5.01
2019-05-29T07:36:53.220Z,3.71
2019-05-29T07:42:02.340Z,4.46
2019-05-29T07:47:11.497Z,4.14
2019-05-29T07:52:20.579Z,7.80
2019-05-29T07:57:29.736Z,3.80
2019-05-29T08:02:39.371Z,3.79
2019-05-29T08:07:47.674Z,4.41
2019-05-29T08:12:56.652Z,3.86
2019-05-29T08:18:05.832Z,4.66
2019-05-29T08:23:15.266Z,4.57
2019-05-29T08:28:24.433Z,3.79
2019-05-29T08:33:33.519Z,4.55
2019-05-29T08:38:44.147Z,6.03
2019-05-29T08:43:52.592Z,4.22
2019-05-29T08:49:00.140Z,4.73
2019-05-29T08:54:23.619Z,4.81
2019-05-29T08:59:17.945Z,4.97
2019-05-29T09:04:27.033Z,4.06
2019-05-29T09:09:36.211Z,4.99
2019-05-29T09:14:45.317Z,5.34
2019-05-29T09:19:54.515Z,4.40
2019-05-29T09:25:03.622Z,4.02
2019-05-29T09:30:14.982Z,4.28
2019-05-29T09:35:23.189Z,4.33
2019-05-29T09:40:30.217Z,4.26
2019-05-29T09:45:39.330Z,4.50
2019-05-29T09:50:50.601Z,4.86
2019-05-29T09:55:57.871Z,4.02
2019-05-29T10:01:21.726Z,4.29
2019-05-29T10:06:14.523Z,4.25
2019-05-29T10:11:23.788Z,4.33
2019-05-29T10:16:32.918Z,4.61
2019-05-29T10:21:42.237Z,4.99
2019-05-29T10:26:51.382Z,4.95
2019-05-29T10:32:00.693Z,5.95
2019-05-29T10:37:09.775Z,4.34
2019-05-29T10:42:20.726Z,5.27
2019-05-29T10:47:27.646Z,7.03
2019-05-29T10:52:36.794Z,4.72
2019-05-29T10:57:46.647Z,5.20
2019-05-29T11:02:55.868Z,5.92
2019-05-29T11:08:03.341Z,5.28
2019-05-29T11:13:12.503Z,8.41
2019-05-29T11:18:21.600Z,6.02
2019-05-29T11:23:30.802Z,5.30
2019-05-29T11:28:39.964Z,4.97
2019-05-29T11:33:49.121Z,4.13
2019-05-29T11:39:03.292Z,4.23
2019-05-29T11:44:07.055Z,6.13
2019-05-29T11:49:16.239Z,4.32
2019-05-29T11:54:25.560Z,4.60
2019-05-29T11:59:34.656Z,5.14
2019-05-29T12:04:43.843Z,5.15
2019-05-29T12:09:53.331Z,5.03
2019-05-29T12:15:11.066Z,5.29
2019-05-29T12:20:24.238Z,3.94
2019-05-29T12:25:19.279Z,4.57
2019-05-29T12:30:28.356Z,4.49
2019-05-29T12:35:37.508Z,5.00
2019-05-29T12:40:46.605Z,4.19
2019-05-29T12:45:55.936Z,5.27
2019-05-29T12:51:05.035Z,5.47
2019-05-29T12:56:14.334Z,5.54
2019-05-29T13:01:23.448Z,5.98
2019-05-29T13:06:32.753Z,6.57
2019-05-29T13:11:41.840Z,5.64
2019-05-29T13:16:51.214Z,5.72
2019-05-29T13:22:01.399Z,6.31
2019-05-29T13:27:08.945Z,5.85
2019-05-29T13:32:18.072Z,7.42
2019-05-29T13:37:27.214Z,6.66
2019-05-29T13:42:36.334Z,6.70
2019-05-29T13:47:45.595Z,6.68
2019-05-29T13:52:54.671Z,7.80
2019-05-29T13:58:03.899Z,9.70
2019-05-29T14:03:13.000Z,10.09
2019-05-29T14:08:22.148Z,9.52
2019-05-29T14:13:31.253Z,11.28
2019-05-29T14:18:40.395Z,12.21
2019-05-29T14:23:49.496Z,12.84
2019-05-29T14:28:58.632Z,13.84
2019-05-29T14:34:09.124Z,16.39
2019-05-29T14:39:16.558Z,7.73
2019-05-29T14:44:25.679Z,8.23
2019-05-29T14:49:35.208Z,8.71
2019-05-29T14:54:44.295Z,6.45
2019-05-29T14:59:53.545Z,5.83
2019-05-29T15:05:03.744Z,6.26
2019-05-29T15:10:24.832Z,6.65
2019-05-29T15:15:14.343Z,10.34
2019-05-29T15:20:21.853Z,6.98
2019-05-29T15:25:30.975Z,11.58
2019-05-29T15:30:40.176Z,16.45
2019-05-29T15:35:49.256Z,14.34
2019-05-29T15:40:58.553Z,13.76
2019-05-29T15:46:09.982Z,15.53
2019-05-29T15:51:17.142Z,12.24
2019-05-29T15:56:27.944Z,11.71
2019-05-29T16:01:33.915Z,10.92
2019-05-29T16:06:43.090Z,10.06
2019-05-29T16:11:52.284Z,10.22
2019-05-29T16:17:01.421Z,12.62
2019-05-29T16:22:10.757Z,11.52
2019-05-29T16:27:19.863Z,12.72
2019-05-29T16:32:28.999Z,10.23
2019-05-29T16:37:38.123Z,8.16
2019-05-29T16:42:47.286Z,8.41
2019-05-29T16:47:56.434Z,6.43
2019-05-29T16:53:05.585Z,17.24
2019-05-29T16:58:14.969Z,17.62
2019-05-29T17:03:23.980Z,13.29
2019-05-29T17:08:33.131Z,14.26
2019-05-29T17:13:42.299Z,15.77
2019-05-29T17:18:51.522Z,16.90
2019-05-29T17:24:00.805Z,14.90
2019-05-29T17:29:09.919Z,19.49
2019-05-29T17:34:19.187Z,21.13
2019-05-29T17:39:28.302Z,18.11
2019-05-29T17:44:37.596Z,18.13
2019-05-29T17:49:46.682Z,20.92
2019-05-29T17:54:55.912Z,17.60
2019-05-29T18:00:05.092Z,16.44
2019-05-29T18:05:14.451Z,15.61
2019-05-29T18:10:24.123Z,14.41
2019-05-29T18:15:32.047Z,13.37
2019-05-29T18:20:41.155Z,12.13
2019-05-29T18:25:50.385Z,8.91
2019-05-29T18:30:59.547Z,6.69
2019-05-29T18:36:08.776Z,4.61
2019-05-29T18:41:17.911Z,4.53
2019-05-29T18:46:27.248Z,3.77
2019-05-29T18:51:36.185Z,2.52
2019-05-29T18:57:13.250Z,5.00
2019-05-29T19:01:53.983Z,4.96
2019-05-29T19:07:03.360Z,4.88
2019-05-29T19:12:12.451Z,6.40
2019-05-29T19:17:22.044Z,6.36
2019-05-29T19:22:30.576Z,8.14
2019-05-29T19:27:41.838Z,7.47
2019-05-29T19:32:47.820Z,6.41
2019-05-29T19:37:57.113Z,3.94
2019-05-29T19:43:06.324Z,5.65
2019-05-29T19:48:15.578Z,6.87
2019-05-29T19:53:26.428Z,4.25
2019-05-29T19:58:33.884Z,7.34
2019-05-29T20:03:42.068Z,6.16
2019-05-29T20:08:51.289Z,5.29
2019-05-29T20:14:00.376Z,8.60
2019-05-29T20:19:09.651Z,5.82
2019-05-29T20:24:18.735Z,4.73
2019-05-29T20:29:28.116Z,5.88
2019-05-29T20:34:37.200Z,6.59
2019-05-29T20:39:46.528Z,7.15
2019-05-29T20:44:55.600Z,4.81
2019-05-29T20:50:04.762Z,5.48
2019-05-29T20:55:13.885Z,4.23
2019-05-29T21:00:23.198Z,5.87
2019-05-29T21:05:32.476Z,4.83
2019-05-29T21:10:43.582Z,4.86
2019-05-29T21:15:51.156Z,4.76
2019-05-29T21:21:00.266Z,4.70
2019-05-29T21:26:09.368Z,4.07
2019-05-29T21:31:18.575Z,4.94
2019-05-29T21:36:27.690Z,3.05
2019-05-29T21:41:36.819Z,5.23
2019-05-29T21:46:47.137Z,3.01
2019-05-29T21:51:54.752Z,5.18
2019-05-29T21:57:03.935Z,4.68
2019-05-29T22:02:13.259Z,4.82
2019-05-29T22:07:22.342Z,4.36
2019-05-29T22:12:31.531Z,4.39
2019-05-29T22:17:40.647Z,5.35
2019-05-29T22:22:51.064Z,4.06
2019-05-29T22:27:59.546Z,4.85
2019-05-29T22:33:07.437Z,4.82
2019-05-29T22:38:16.525Z,4.13
2019-05-29T22:43:25.826Z,3.85
2019-05-29T22:48:35.006Z,4.67
2019-05-29T22:53:44.156Z,4.21
2019-05-29T22:58:53.986Z,2.69
2019-05-29T23:04:02.591Z,4.71
2019-05-29T23:09:10.585Z,3.76
2019-05-29T23:14:19.811Z,2.42
2019-05-29T23:19:28.886Z,3.77
2019-05-29T23:24:38.123Z,3.76
2019-05-29T23:29:49.255Z,2.98
2019-05-29T23:34:57.077Z,3.27
2019-05-29T23:40:04.523Z,4.07
2019-05-29T23:45:13.836Z,4.19
2019-05-29T23:50:22.928Z,3.02
2019-05-29T23:55:32.082Z,4.25
